Philadelphia, Pennsylvania
Traffic Map
Current Weather Conditions
Philadelphia, Pennsylvania
Overcast
Overcast
44°
Feels Like: 37°
Wind Chill: 37° Ceiling: 1600
Heat Index: 44° Visibility: 10mi
Dew Point: 38° Wind: 14mph
Humidity: 79% Direction: 70° (ENE)
Pressure: 30.35in Gusts: 0mph
Raw Report DataKPHL 260725Z 07012KT 10SM BKN016 BKN038 OVC100 07/03 A3035 RMK AO2 T00670033 $
Traffic Incident Summary
Active as of:
Severity:
Category:
InformationThere was an issue retrieving the traffic information for this location. Please try a different location or try again shortly.
Advertisements
Track Severe Weather on mobile